sensor_id;sensor_type;location;lat;lon;timestamp;P1;P2;P0
35654;PMS1003;21773;50.010;19.972;2023-08-12T00:02:00;13.50;13.00;12.50
35654;PMS1003;21773;50.010;19.972;2023-08-12T00:05:03;15.00;14.00;12.00
35654;PMS1003;21773;50.010;19.972;2023-08-12T00:08:07;15.00;13.00;12.00
35654;PMS1003;21773;50.010;19.972;2023-08-12T00:11:11;14.00;12.80;11.80
35654;PMS1003;21773;50.010;19.972;2023-08-12T00:14:14;12.00;12.00;10.00
35654;PMS1003;21773;50.010;19.972;2023-08-12T00:17:17;13.00;12.00;11.00
35654;PMS1003;21773;50.010;19.972;2023-08-12T00:20:21;12.40;12.00;11.00
35654;PMS1003;21773;50.010;19.972;2023-08-12T00:23:24;14.00;13.25;12.00
35654;PMS1003;21773;50.010;19.972;2023-08-12T00:26:29;12.00;11.00;9.60
35654;PMS1003;21773;50.010;19.972;2023-08-12T00:29:32;12.75;12.00;11.00
35654;PMS1003;21773;50.010;19.972;2023-08-12T00:32:36;16.00;12.80;11.00
35654;PMS1003;21773;50.010;19.972;2023-08-12T00:35:39;10.60;10.60;10.20
35654;PMS1003;21773;50.010;19.972;2023-08-12T00:38:42;15.00;14.00;13.00
35654;PMS1003;21773;50.010;19.972;2023-08-12T00:41:46;11.75;11.50;10.00
35654;PMS1003;21773;50.010;19.972;2023-08-12T00:44:50;10.60;9.20;9.00
35654;PMS1003;21773;50.010;19.972;2023-08-12T00:47:53;12.20;11.00;10.40
35654;PMS1003;21773;50.010;19.972;2023-08-12T00:50:56;12.60;12.00;11.00
35654;PMS1003;21773;50.010;19.972;2023-08-12T00:53:59;13.00;13.00;12.60
35654;PMS1003;21773;50.010;19.972;2023-08-12T00:57:06;12.00;11.00;10.40
35654;PMS1003;21773;50.010;19.972;2023-08-12T01:00:11;13.00;12.60;11.60
35654;PMS1003;21773;50.010;19.972;2023-08-12T01:03:15;10.80;10.40;9.00
35654;PMS1003;21773;50.010;19.972;2023-08-12T01:06:18;10.50;10.00;9.75
35654;PMS1003;21773;50.010;19.972;2023-08-12T01:09:22;12.00;12.00;11.00
35654;PMS1003;21773;50.010;19.972;2023-08-12T01:12:28;11.40;11.40;10.40
35654;PMS1003;21773;50.010;19.972;2023-08-12T01:15:34;13.80;13.20;11.80
35654;PMS1003;21773;50.010;19.972;2023-08-12T01:18:38;11.50;10.00;9.00
35654;PMS1003;21773;50.010;19.972;2023-08-12T01:21:43;12.60;12.00;11.60
35654;PMS1003;21773;50.010;19.972;2023-08-12T01:24:50;14.20;13.40;12.00
35654;PMS1003;21773;50.010;19.972;2023-08-12T01:27:54;17.20;13.80;12.80
35654;PMS1003;21773;50.010;19.972;2023-08-12T01:31:01;13.50;12.00;10.75
35654;PMS1003;21773;50.010;19.972;2023-08-12T01:34:12;12.40;12.20;11.20
35654;PMS1003;21773;50.010;19.972;2023-08-12T01:37:24;14.60;13.40;12.00
35654;PMS1003;21773;50.010;19.972;2023-08-12T01:40:30;14.40;13.00;11.40
35654;PMS1003;21773;50.010;19.972;2023-08-12T01:43:35;15.00;14.00;12.40
35654;PMS1003;21773;50.010;19.972;2023-08-12T01:46:38;14.00;12.00;11.00
35654;PMS1003;21773;50.010;19.972;2023-08-12T01:49:42;13.80;13.00;12.00
35654;PMS1003;21773;50.010;19.972;2023-08-12T01:52:45;16.00;14.00;13.25
35654;PMS1003;21773;50.010;19.972;2023-08-12T01:55:50;16.40;15.40;14.00
35654;PMS1003;21773;50.010;19.972;2023-08-12T01:58:54;16.00;14.00;12.50
35654;PMS1003;21773;50.010;19.972;2023-08-12T02:01:58;15.00;15.00;13.00
35654;PMS1003;21773;50.010;19.972;2023-08-12T02:05:01;17.25;15.25;14.25
35654;PMS1003;21773;50.010;19.972;2023-08-12T02:08:05;16.40;15.40;14.40
35654;PMS1003;21773;50.010;19.972;2023-08-12T02:11:10;14.00;14.00;13.00
35654;PMS1003;21773;50.010;19.972;2023-08-12T02:14:13;15.00;15.00;14.00
35654;PMS1003;21773;50.010;19.972;2023-08-12T02:17:17;13.00;13.00;12.00
35654;PMS1003;21773;50.010;19.972;2023-08-12T02:20:20;14.00;13.00;12.00
35654;PMS1003;21773;50.010;19.972;2023-08-12T02:23:23;12.40;12.00;10.40
35654;PMS1003;21773;50.010;19.972;2023-08-12T02:26:28;13.00;13.00;12.00
35654;PMS1003;21773;50.010;19.972;2023-08-12T02:29:32;13.60;13.00;12.00
35654;PMS1003;21773;50.010;19.972;2023-08-12T02:32:36;12.00;11.20;10.00
35654;PMS1003;21773;50.010;19.972;2023-08-12T02:35:39;12.75;12.00;11.00
35654;PMS1003;21773;50.010;19.972;2023-08-12T02:38:44;11.80;11.20;10.20
35654;PMS1003;21773;50.010;19.972;2023-08-12T02:41:48;13.80;12.00;11.00
35654;PMS1003;21773;50.010;19.972;2023-08-12T02:44:51;13.40;12.00;11.00
35654;PMS1003;21773;50.010;19.972;2023-08-12T02:47:54;12.00;11.50;10.00
35654;PMS1003;21773;50.010;19.972;2023-08-12T02:50:58;12.40;11.00;11.00
35654;PMS1003;21773;50.010;19.972;2023-08-12T02:54:01;14.00;12.40;11.00
35654;PMS1003;21773;50.010;19.972;2023-08-12T02:57:06;11.00;10.00;9.00
35654;PMS1003;21773;50.010;19.972;2023-08-12T03:00:09;12.60;11.00;9.60
35654;PMS1003;21773;50.010;19.972;2023-08-12T03:03:14;13.00;12.00;11.00
35654;PMS1003;21773;50.010;19.972;2023-08-12T03:06:17;10.25;10.00;9.00
35654;PMS1003;21773;50.010;19.972;2023-08-12T03:09:21;16.00;14.00;12.00
35654;PMS1003;21773;50.010;19.972;2023-08-12T03:12:25;15.00;14.00;13.00
35654;PMS1003;21773;50.010;19.972;2023-08-12T03:15:29;17.50;15.00;14.00
35654;PMS1003;21773;50.010;19.972;2023-08-12T03:18:32;14.80;13.00;12.40
35654;PMS1003;21773;50.010;19.972;2023-08-12T03:21:36;14.50;14.00;13.00
35654;PMS1003;21773;50.010;19.972;2023-08-12T03:24:39;13.00;11.40;10.40
35654;PMS1003;21773;50.010;19.972;2023-08-12T03:27:44;14.00;12.00;11.00
35654;PMS1003;21773;50.010;19.972;2023-08-12T03:30:49;12.00;12.00;11.33
35654;PMS1003;21773;50.010;19.972;2023-08-12T03:33:57;11.00;10.20;10.00
35654;PMS1003;21773;50.010;19.972;2023-08-12T03:37:02;11.00;11.00;10.00
35654;PMS1003;21773;50.010;19.972;2023-08-12T03:40:07;14.00;13.40;12.40
35654;PMS1003;21773;50.010;19.972;2023-08-12T03:43:13;13.00;12.40;11.00
35654;PMS1003;21773;50.010;19.972;2023-08-12T03:46:18;10.75;10.00;9.75
35654;PMS1003;21773;50.010;19.972;2023-08-12T03:49:21;13.00;11.80;10.80
35654;PMS1003;21773;50.010;19.972;2023-08-12T03:52:25;13.75;13.00;12.00
35654;PMS1003;21773;50.010;19.972;2023-08-12T03:55:30;14.00;13.00;11.00
35654;PMS1003;21773;50.010;19.972;2023-08-12T03:58:34;13.80;13.00;12.00
35654;PMS1003;21773;50.010;19.972;2023-08-12T04:01:38;11.40;11.40;10.40
35654;PMS1003;21773;50.010;19.972;2023-08-12T04:04:41;13.00;12.00;10.00
35654;PMS1003;21773;50.010;19.972;2023-08-12T04:07:45;12.00;10.33;10.00
35654;PMS1003;21773;50.010;19.972;2023-08-12T04:10:48;13.00;12.60;11.40
35654;PMS1003;21773;50.010;19.972;2023-08-12T04:13:54;14.20;13.00;11.20
35654;PMS1003;21773;50.010;19.972;2023-08-12T04:16:57;11.00;10.60;9.60
35654;PMS1003;21773;50.010;19.972;2023-08-12T04:20:00;9.60;9.00;8.00
35654;PMS1003;21773;50.010;19.972;2023-08-12T04:23:09;10.20;9.20;8.00
35654;PMS1003;21773;50.010;19.972;2023-08-12T04:26:12;11.00;10.00;9.00
35654;PMS1003;21773;50.010;19.972;2023-08-12T04:29:17;11.00;11.00;10.00
35654;PMS1003;21773;50.010;19.972;2023-08-12T04:32:20;11.00;10.60;10.00
35654;PMS1003;21773;50.010;19.972;2023-08-12T04:35:24;10.75;9.00;9.00
35654;PMS1003;21773;50.010;19.972;2023-08-12T04:38:27;11.00;11.00;10.00
35654;PMS1003;21773;50.010;19.972;2023-08-12T04:41:32;10.00;9.00;8.00
35654;PMS1003;21773;50.010;19.972;2023-08-12T04:44:39;9.50;9.00;8.00
35654;PMS1003;21773;50.010;19.972;2023-08-12T04:47:43;10.00;10.00;9.00
35654;PMS1003;21773;50.010;19.972;2023-08-12T04:50:49;8.00;8.00;7.60
35654;PMS1003;21773;50.010;19.972;2023-08-12T04:53:52;8.00;8.00;7.00
35654;PMS1003;21773;50.010;19.972;2023-08-12T04:56:56;10.00;9.40;8.40
35654;PMS1003;21773;50.010;19.972;2023-08-12T05:00:00;7.20;6.80;5.80
35654;PMS1003;21773;50.010;19.972;2023-08-12T05:03:04;7.80;7.80;6.80
35654;PMS1003;21773;50.010;19.972;2023-08-12T05:06:07;6.75;6.00;5.75
35654;PMS1003;21773;50.010;19.972;2023-08-12T05:09:11;7.00;7.00;6.00
35654;PMS1003;21773;50.010;19.972;2023-08-12T05:12:16;8.00;8.00;7.00
35654;PMS1003;21773;50.010;19.972;2023-08-12T05:15:21;9.00;9.00;8.00
35654;PMS1003;21773;50.010;19.972;2023-08-12T05:18:24;10.00;9.40;8.40
35654;PMS1003;21773;50.010;19.972;2023-08-12T05:21:28;7.50;6.50;6.50
35654;PMS1003;21773;50.010;19.972;2023-08-12T05:24:32;9.60;8.60;8.00
35654;PMS1003;21773;50.010;19.972;2023-08-12T05:27:35;7.25;5.50;5.25
35654;PMS1003;21773;50.010;19.972;2023-08-12T05:30:40;7.00;6.00;6.00
35654;PMS1003;21773;50.010;19.972;2023-08-12T05:33:43;7.00;6.20;5.80
35654;PMS1003;21773;50.010;19.972;2023-08-12T05:36:46;8.20;7.00;6.20
35654;PMS1003;21773;50.010;19.972;2023-08-12T05:39:49;7.00;7.00;6.60
35654;PMS1003;21773;50.010;19.972;2023-08-12T05:42:53;7.00;5.50;4.50
35654;PMS1003;21773;50.010;19.972;2023-08-12T05:45:57;7.40;7.40;6.40
35654;PMS1003;21773;50.010;19.972;2023-08-12T05:49:01;8.00;7.40;7.00
35654;PMS1003;21773;50.010;19.972;2023-08-12T05:52:04;7.00;7.00;6.00
35654;PMS1003;21773;50.010;19.972;2023-08-12T05:55:08;7.20;7.00;6.20
35654;PMS1003;21773;50.010;19.972;2023-08-12T05:58:11;7.00;7.00;6.00
35654;PMS1003;21773;50.010;19.972;2023-08-12T06:01:15;7.00;7.00;7.00
35654;PMS1003;21773;50.010;19.972;2023-08-12T06:04:18;8.00;6.20;5.20
35654;PMS1003;21773;50.010;19.972;2023-08-12T06:07:22;7.50;7.00;6.00
35654;PMS1003;21773;50.010;19.972;2023-08-12T06:10:26;6.00;6.00;5.00
35654;PMS1003;21773;50.010;19.972;2023-08-12T06:13:29;7.00;7.00;5.80
35654;PMS1003;21773;50.010;19.972;2023-08-12T06:16:34;9.00;8.20;8.00
35654;PMS1003;21773;50.010;19.972;2023-08-12T06:19:37;7.00;6.00;6.00
35654;PMS1003;21773;50.010;19.972;2023-08-12T06:22:40;7.75;7.25;6.75
35654;PMS1003;21773;50.010;19.972;2023-08-12T06:25:44;8.75;8.00;6.75
35654;PMS1003;21773;50.010;19.972;2023-08-12T06:28:47;10.00;9.40;8.80
35654;PMS1003;21773;50.010;19.972;2023-08-12T06:31:51;7.00;7.00;6.00
35654;PMS1003;21773;50.010;19.972;2023-08-12T06:34:55;7.00;6.00;5.00
35654;PMS1003;21773;50.010;19.972;2023-08-12T06:37:58;7.60;7.00;6.00
35654;PMS1003;21773;50.010;19.972;2023-08-12T06:41:01;9.00;8.00;7.00
35654;PMS1003;21773;50.010;19.972;2023-08-12T06:44:04;8.40;8.00;7.40
35654;PMS1003;21773;50.010;19.972;2023-08-12T06:47:09;8.40;7.40;7.00
35654;PMS1003;21773;50.010;19.972;2023-08-12T06:50:12;8.75;7.75;7.00
35654;PMS1003;21773;50.010;19.972;2023-08-12T06:53:15;9.00;9.00;9.00
35654;PMS1003;21773;50.010;19.972;2023-08-12T06:56:19;8.50;8.00;7.00
35654;PMS1003;21773;50.010;19.972;2023-08-12T06:59:22;8.00;7.00;7.00
35654;PMS1003;21773;50.010;19.972;2023-08-12T07:02:27;6.80;6.20;5.80
35654;PMS1003;21773;50.010;19.972;2023-08-12T07:05:33;8.00;8.00;7.00
35654;PMS1003;21773;50.010;19.972;2023-08-12T07:08:36;8.33;7.33;6.33
35654;PMS1003;21773;50.010;19.972;2023-08-12T07:11:39;10.00;9.80;8.80
35654;PMS1003;21773;50.010;19.972;2023-08-12T07:14:43;9.00;8.40;8.00
35654;PMS1003;21773;50.010;19.972;2023-08-12T07:17:47;9.40;9.00;7.40
35654;PMS1003;21773;50.010;19.972;2023-08-12T07:20:50;9.00;7.00;6.00
35654;PMS1003;21773;50.010;19.972;2023-08-12T07:23:53;9.40;9.00;9.00
35654;PMS1003;21773;50.010;19.972;2023-08-12T07:27:05;8.00;7.00;6.40
35654;PMS1003;21773;50.010;19.972;2023-08-12T07:30:08;9.80;9.00;8.00
35654;PMS1003;21773;50.010;19.972;2023-08-12T07:33:14;11.00;10.60;10.00
35654;PMS1003;21773;50.010;19.972;2023-08-12T07:36:17;9.00;9.00;8.00
35654;PMS1003;21773;50.010;19.972;2023-08-12T07:39:20;9.00;9.00;8.00
35654;PMS1003;21773;50.010;19.972;2023-08-12T07:42:23;8.00;8.00;7.40
35654;PMS1003;21773;50.010;19.972;2023-08-12T07:45:27;9.00;8.50;8.00
35654;PMS1003;21773;50.010;19.972;2023-08-12T07:48:36;9.00;9.00;8.00
35654;PMS1003;21773;50.010;19.972;2023-08-12T07:51:40;12.00;11.80;10.00
35654;PMS1003;21773;50.010;19.972;2023-08-12T07:54:44;9.60;8.20;7.20
35654;PMS1003;21773;50.010;19.972;2023-08-12T07:57:47;8.60;8.00;7.00
35654;PMS1003;21773;50.010;19.972;2023-08-12T08:00:52;9.00;8.50;8.00
35654;PMS1003;21773;50.010;19.972;2023-08-12T08:03:57;7.00;7.00;6.00
35654;PMS1003;21773;50.010;19.972;2023-08-12T08:07:00;9.20;8.00;7.20
35654;PMS1003;21773;50.010;19.972;2023-08-12T08:10:04;9.00;9.00;8.00
35654;PMS1003;21773;50.010;19.972;2023-08-12T08:13:08;9.60;8.60;7.60
35654;PMS1003;21773;50.010;19.972;2023-08-12T08:16:11;9.00;9.00;8.00
35654;PMS1003;21773;50.010;19.972;2023-08-12T08:19:15;8.40;8.00;7.00
35654;PMS1003;21773;50.010;19.972;2023-08-12T08:22:20;7.60;7.60;7.00
35654;PMS1003;21773;50.010;19.972;2023-08-12T08:25:23;10.00;10.00;9.00
35654;PMS1003;21773;50.010;19.972;2023-08-12T08:28:26;7.50;7.00;6.50
35654;PMS1003;21773;50.010;19.972;2023-08-12T08:31:29;8.60;7.60;7.00
35654;PMS1003;21773;50.010;19.972;2023-08-12T08:34:33;8.00;7.40;7.40
35654;PMS1003;21773;50.010;19.972;2023-08-12T08:37:36;9.00;9.00;8.40
35654;PMS1003;21773;50.010;19.972;2023-08-12T08:40:40;7.00;6.67;5.67
35654;PMS1003;21773;50.010;19.972;2023-08-12T08:43:43;8.60;8.00;7.60
35654;PMS1003;21773;50.010;19.972;2023-08-12T08:46:50;8.00;8.00;7.00
35654;PMS1003;21773;50.010;19.972;2023-08-12T08:49:57;8.60;8.00;7.00
35654;PMS1003;21773;50.010;19.972;2023-08-12T08:53:01;8.50;7.00;6.00
35654;PMS1003;21773;50.010;19.972;2023-08-12T08:56:07;7.00;7.00;6.00
35654;PMS1003;21773;50.010;19.972;2023-08-12T08:59:16;5.60;5.00;4.60
35654;PMS1003;21773;50.010;19.972;2023-08-12T09:02:19;7.00;6.00;6.00
35654;PMS1003;21773;50.010;19.972;2023-08-12T09:05:25;6.20;6.00;6.00
35654;PMS1003;21773;50.010;19.972;2023-08-12T09:08:29;5.40;5.40;4.80
35654;PMS1003;21773;50.010;19.972;2023-08-12T09:11:34;6.00;5.80;5.40
35654;PMS1003;21773;50.010;19.972;2023-08-12T09:14:37;5.60;5.00;5.00
35654;PMS1003;21773;50.010;19.972;2023-08-12T09:17:40;6.40;6.00;6.00
35654;PMS1003;21773;50.010;19.972;2023-08-12T09:20:45;8.00;7.40;6.40
35654;PMS1003;21773;50.010;19.972;2023-08-12T09:23:49;7.00;6.00;6.00
35654;PMS1003;21773;50.010;19.972;2023-08-12T09:26:52;7.00;7.00;6.00
35654;PMS1003;21773;50.010;19.972;2023-08-12T09:29:58;9.00;8.00;8.00
35654;PMS1003;21773;50.010;19.972;2023-08-12T09:33:05;6.60;6.00;6.00
35654;PMS1003;21773;50.010;19.972;2023-08-12T09:36:11;5.00;4.00;4.00
35654;PMS1003;21773;50.010;19.972;2023-08-12T09:39:14;7.00;7.00;6.25
35654;PMS1003;21773;50.010;19.972;2023-08-12T09:42:18;7.00;6.40;6.00
35654;PMS1003;21773;50.010;19.972;2023-08-12T09:45:23;7.00;7.00;7.00
35654;PMS1003;21773;50.010;19.972;2023-08-12T09:48:26;7.00;6.00;6.00
35654;PMS1003;21773;50.010;19.972;2023-08-12T09:51:34;7.00;7.00;6.00
35654;PMS1003;21773;50.010;19.972;2023-08-12T09:54:38;5.80;5.80;5.00
35654;PMS1003;21773;50.010;19.972;2023-08-12T09:57:42;6.00;5.80;4.80
35654;PMS1003;21773;50.010;19.972;2023-08-12T10:00:46;6.00;6.00;6.00
35654;PMS1003;21773;50.010;19.972;2023-08-12T10:03:50;5.00;5.00;4.60
35654;PMS1003;21773;50.010;19.972;2023-08-12T10:06:55;9.20;8.00;7.20
35654;PMS1003;21773;50.010;19.972;2023-08-12T10:09:59;7.00;7.00;6.00
35654;PMS1003;21773;50.010;19.972;2023-08-12T10:13:03;8.00;8.00;7.00
35654;PMS1003;21773;50.010;19.972;2023-08-12T10:16:09;7.50;7.00;6.00
35654;PMS1003;21773;50.010;19.972;2023-08-12T10:19:13;6.00;6.00;5.00
35654;PMS1003;21773;50.010;19.972;2023-08-12T10:22:21;6.40;6.40;6.00
35654;PMS1003;21773;50.010;19.972;2023-08-12T10:25:24;8.00;7.00;6.00
35654;PMS1003;21773;50.010;19.972;2023-08-12T10:28:33;7.00;6.00;5.60
35654;PMS1003;21773;50.010;19.972;2023-08-12T10:31:39;6.00;6.00;5.25
35654;PMS1003;21773;50.010;19.972;2023-08-12T10:34:46;5.60;5.60;5.00
35654;PMS1003;21773;50.010;19.972;2023-08-12T10:37:59;4.20;4.20;4.00
35654;PMS1003;21773;50.010;19.972;2023-08-12T10:41:18;7.00;6.00;5.00
35654;PMS1003;21773;50.010;19.972;2023-08-12T10:44:25;7.00;7.00;6.00
35654;PMS1003;21773;50.010;19.972;2023-08-12T10:47:29;7.00;6.00;5.50
35654;PMS1003;21773;50.010;19.972;2023-08-12T10:50:34;6.00;6.00;6.00
35654;PMS1003;21773;50.010;19.972;2023-08-12T10:53:38;7.00;6.00;5.00
35654;PMS1003;21773;50.010;19.972;2023-08-12T11:00:10;6.00;6.00;5.50
35654;PMS1003;21773;50.010;19.972;2023-08-12T11:03:16;6.00;6.00;5.25
35654;PMS1003;21773;50.010;19.972;2023-08-12T11:06:19;5.00;5.00;4.00
35654;PMS1003;21773;50.010;19.972;2023-08-12T11:09:23;7.00;6.00;5.20
35654;PMS1003;21773;50.010;19.972;2023-08-12T11:12:32;6.00;6.00;5.00
35654;PMS1003;21773;50.010;19.972;2023-08-12T11:15:37;6.00;5.00;5.00
35654;PMS1003;21773;50.010;19.972;2023-08-12T11:18:43;5.00;5.00;4.20
35654;PMS1003;21773;50.010;19.972;2023-08-12T11:21:46;5.00;4.00;4.00
35654;PMS1003;21773;50.010;19.972;2023-08-12T11:24:51;5.00;5.00;4.00
35654;PMS1003;21773;50.010;19.972;2023-08-12T11:27:56;6.50;6.00;5.00
35654;PMS1003;21773;50.010;19.972;2023-08-12T11:30:59;5.20;5.00;4.20
35654;PMS1003;21773;50.010;19.972;2023-08-12T11:34:04;5.00;5.00;5.00
35654;PMS1003;21773;50.010;19.972;2023-08-12T11:37:07;6.00;6.00;5.00
35654;PMS1003;21773;50.010;19.972;2023-08-12T11:40:13;5.25;5.25;5.00
35654;PMS1003;21773;50.010;19.972;2023-08-12T11:43:20;6.00;6.00;5.00
35654;PMS1003;21773;50.010;19.972;2023-08-12T11:46:24;5.60;5.00;5.00
35654;PMS1003;21773;50.010;19.972;2023-08-12T11:49:28;5.00;4.00;4.00
35654;PMS1003;21773;50.010;19.972;2023-08-12T11:52:31;6.00;5.20;5.00
35654;PMS1003;21773;50.010;19.972;2023-08-12T11:55:36;4.50;4.50;4.00
35654;PMS1003;21773;50.010;19.972;2023-08-12T11:58:41;4.40;4.40;4.40
35654;PMS1003;21773;50.010;19.972;2023-08-12T12:01:54;4.75;4.00;4.00
35654;PMS1003;21773;50.010;19.972;2023-08-12T12:04:57;6.00;6.00;5.00
35654;PMS1003;21773;50.010;19.972;2023-08-12T12:08:01;5.00;5.00;4.00
35654;PMS1003;21773;50.010;19.972;2023-08-12T12:11:08;5.00;5.00;4.00
35654;PMS1003;21773;50.010;19.972;2023-08-12T12:14:11;4.50;4.50;4.00
35654;PMS1003;21773;50.010;19.972;2023-08-12T12:17:14;3.50;3.00;3.00
35654;PMS1003;21773;50.010;19.972;2023-08-12T12:20:18;4.00;4.00;4.00
35654;PMS1003;21773;50.010;19.972;2023-08-12T12:23:26;3.00;3.00;3.00
35654;PMS1003;21773;50.010;19.972;2023-08-12T12:26:31;5.00;4.00;4.00
35654;PMS1003;21773;50.010;19.972;2023-08-12T12:29:35;4.40;4.00;4.00
35654;PMS1003;21773;50.010;19.972;2023-08-12T12:32:38;4.00;3.50;3.00
35654;PMS1003;21773;50.010;19.972;2023-08-12T12:35:42;2.00;2.00;2.00
35654;PMS1003;21773;50.010;19.972;2023-08-12T12:38:59;4.00;4.00;3.40
35654;PMS1003;21773;50.010;19.972;2023-08-12T12:42:04;5.00;4.25;4.00
35654;PMS1003;21773;50.010;19.972;2023-08-12T12:45:07;3.00;3.00;3.00
35654;PMS1003;21773;50.010;19.972;2023-08-12T12:48:11;4.60;4.60;4.00
35654;PMS1003;21773;50.010;19.972;2023-08-12T12:51:15;4.00;4.00;3.00
35654;PMS1003;21773;50.010;19.972;2023-08-12T12:54:18;4.00;4.00;3.00
35654;PMS1003;21773;50.010;19.972;2023-08-12T12:57:22;4.00;3.75;3.75
35654;PMS1003;21773;50.010;19.972;2023-08-12T13:00:25;6.00;5.00;4.00
35654;PMS1003;21773;50.010;19.972;2023-08-12T13:03:29;5.00;4.60;4.40
35654;PMS1003;21773;50.010;19.972;2023-08-12T13:06:33;4.00;4.00;4.00
35654;PMS1003;21773;50.010;19.972;2023-08-12T13:09:36;4.00;4.00;3.00
35654;PMS1003;21773;50.010;19.972;2023-08-12T13:12:44;4.00;4.00;3.80
35654;PMS1003;21773;50.010;19.972;2023-08-12T13:15:47;3.00;3.00;3.00
35654;PMS1003;21773;50.010;19.972;2023-08-12T13:18:50;4.00;3.25;3.00
35654;PMS1003;21773;50.010;19.972;2023-08-12T13:21:53;5.00;4.00;3.00
35654;PMS1003;21773;50.010;19.972;2023-08-12T13:24:56;4.60;4.00;4.00
35654;PMS1003;21773;50.010;19.972;2023-08-12T13:28:02;6.00;5.00;5.00
35654;PMS1003;21773;50.010;19.972;2023-08-12T13:31:06;4.00;4.00;3.60
35654;PMS1003;21773;50.010;19.972;2023-08-12T13:34:10;4.25;4.25;4.00
35654;PMS1003;21773;50.010;19.972;2023-08-12T13:37:13;3.00;3.00;3.00
35654;PMS1003;21773;50.010;19.972;2023-08-12T13:40:16;3.00;3.00;3.00
35654;PMS1003;21773;50.010;19.972;2023-08-12T13:43:21;3.00;3.00;3.00
35654;PMS1003;21773;50.010;19.972;2023-08-12T13:46:24;4.00;4.00;4.00
35654;PMS1003;21773;50.010;19.972;2023-08-12T13:49:27;4.00;4.00;4.00
35654;PMS1003;21773;50.010;19.972;2023-08-12T13:52:31;4.75;4.75;4.00
35654;PMS1003;21773;50.010;19.972;2023-08-12T13:55:34;6.00;5.00;4.00
35654;PMS1003;21773;50.010;19.972;2023-08-12T13:58:39;5.00;5.00;4.00
35654;PMS1003;21773;50.010;19.972;2023-08-12T14:01:42;5.00;4.80;4.80
35654;PMS1003;21773;50.010;19.972;2023-08-12T14:04:45;4.00;4.00;3.50
35654;PMS1003;21773;50.010;19.972;2023-08-12T14:07:48;5.00;5.00;4.00
35654;PMS1003;21773;50.010;19.972;2023-08-12T14:10:51;3.00;3.00;3.00
35654;PMS1003;21773;50.010;19.972;2023-08-12T14:13:57;5.00;4.00;4.00
35654;PMS1003;21773;50.010;19.972;2023-08-12T14:17:00;3.60;3.00;3.00
35654;PMS1003;21773;50.010;19.972;2023-08-12T14:20:03;3.20;3.20;3.00
35654;PMS1003;21773;50.010;19.972;2023-08-12T14:23:09;4.00;4.00;3.00
35654;PMS1003;21773;50.010;19.972;2023-08-12T14:26:13;4.40;3.40;3.00
35654;PMS1003;21773;50.010;19.972;2023-08-12T14:29:17;4.00;4.00;3.00
35654;PMS1003;21773;50.010;19.972;2023-08-12T14:32:21;5.50;5.00;5.00
35654;PMS1003;21773;50.010;19.972;2023-08-12T14:35:24;5.00;4.00;3.00
35654;PMS1003;21773;50.010;19.972;2023-08-12T14:38:27;4.00;4.00;4.00
35654;PMS1003;21773;50.010;19.972;2023-08-12T14:41:30;4.00;4.00;4.00
35654;PMS1003;21773;50.010;19.972;2023-08-12T14:44:35;5.20;5.00;4.20
35654;PMS1003;21773;50.010;19.972;2023-08-12T14:47:38;4.40;4.40;4.00
35654;PMS1003;21773;50.010;19.972;2023-08-12T14:50:41;6.00;5.00;5.00
35654;PMS1003;21773;50.010;19.972;2023-08-12T14:53:44;5.00;5.00;5.00
35654;PMS1003;21773;50.010;19.972;2023-08-12T14:56:49;5.00;4.00;4.00
35654;PMS1003;21773;50.010;19.972;2023-08-12T14:59:53;4.20;4.20;3.80
35654;PMS1003;21773;50.010;19.972;2023-08-12T15:02:56;6.00;5.60;5.00
35654;PMS1003;21773;50.010;19.972;2023-08-12T15:06:01;5.00;5.00;4.40
35654;PMS1003;21773;50.010;19.972;2023-08-12T15:09:05;5.00;5.00;4.80
35654;PMS1003;21773;50.010;19.972;2023-08-12T15:12:08;5.00;5.00;4.00
35654;PMS1003;21773;50.010;19.972;2023-08-12T15:15:13;6.00;5.50;4.50
35654;PMS1003;21773;50.010;19.972;2023-08-12T15:18:16;5.00;5.00;5.00
35654;PMS1003;21773;50.010;19.972;2023-08-12T15:21:20;5.00;4.40;4.40
35654;PMS1003;21773;50.010;19.972;2023-08-12T15:24:23;6.50;5.50;5.00
35654;PMS1003;21773;50.010;19.972;2023-08-12T15:27:26;5.00;5.00;4.00
35654;PMS1003;21773;50.010;19.972;2023-08-12T15:30:30;5.80;5.00;4.00
35654;PMS1003;21773;50.010;19.972;2023-08-12T15:33:34;6.40;6.00;5.00
35654;PMS1003;21773;50.010;19.972;2023-08-12T15:36:37;4.00;4.00;3.33
35654;PMS1003;21773;50.010;19.972;2023-08-12T15:39:42;5.00;5.00;4.40
35654;PMS1003;21773;50.010;19.972;2023-08-12T15:42:45;4.20;4.20;4.00
35654;PMS1003;21773;50.010;19.972;2023-08-12T15:45:52;6.00;5.00;5.00
35654;PMS1003;21773;50.010;19.972;2023-08-12T15:48:56;5.00;5.00;5.00
35654;PMS1003;21773;50.010;19.972;2023-08-12T15:51:59;5.00;5.00;5.00
35654;PMS1003;21773;50.010;19.972;2023-08-12T15:55:04;3.20;3.20;3.00
35654;PMS1003;21773;50.010;19.972;2023-08-12T15:58:08;4.40;4.40;4.00
35654;PMS1003;21773;50.010;19.972;2023-08-12T16:01:12;7.00;7.00;7.00
35654;PMS1003;21773;50.010;19.972;2023-08-12T16:04:15;5.00;5.00;5.00
35654;PMS1003;21773;50.010;19.972;2023-08-12T16:07:19;5.00;5.00;5.00
35654;PMS1003;21773;50.010;19.972;2023-08-12T16:10:22;6.00;6.00;6.00
35654;PMS1003;21773;50.010;19.972;2023-08-12T16:13:26;5.20;5.20;4.80
35654;PMS1003;21773;50.010;19.972;2023-08-12T16:16:31;6.00;5.60;5.00
35654;PMS1003;21773;50.010;19.972;2023-08-12T16:19:34;6.00;6.00;5.00
35654;PMS1003;21773;50.010;19.972;2023-08-12T16:22:38;4.00;3.60;3.00
35654;PMS1003;21773;50.010;19.972;2023-08-12T16:25:41;4.00;4.00;3.00
35654;PMS1003;21773;50.010;19.972;2023-08-12T16:28:44;5.00;5.00;4.00
35654;PMS1003;21773;50.010;19.972;2023-08-12T16:31:49;4.80;4.80;4.00
35654;PMS1003;21773;50.010;19.972;2023-08-12T16:34:52;6.00;5.75;5.00
35654;PMS1003;21773;50.010;19.972;2023-08-12T16:37:56;5.20;5.20;5.00
35654;PMS1003;21773;50.010;19.972;2023-08-12T16:41:00;5.60;5.60;5.00
35654;PMS1003;21773;50.010;19.972;2023-08-12T16:44:03;6.00;6.00;5.00
35654;PMS1003;21773;50.010;19.972;2023-08-12T16:47:08;6.80;6.00;5.00
35654;PMS1003;21773;50.010;19.972;2023-08-12T16:50:12;7.00;7.00;6.00
35654;PMS1003;21773;50.010;19.972;2023-08-12T16:53:15;13.00;12.00;11.00
35654;PMS1003;21773;50.010;19.972;2023-08-12T16:56:18;10.50;9.75;8.00
35654;PMS1003;21773;50.010;19.972;2023-08-12T16:59:22;8.60;8.00;7.00
35654;PMS1003;21773;50.010;19.972;2023-08-12T17:02:26;11.00;10.40;10.00
35654;PMS1003;21773;50.010;19.972;2023-08-12T17:05:29;8.00;7.00;7.00
35654;PMS1003;21773;50.010;19.972;2023-08-12T17:08:33;8.00;8.00;7.00
35654;PMS1003;21773;50.010;19.972;2023-08-12T17:11:36;7.00;7.00;6.00
35654;PMS1003;21773;50.010;19.972;2023-08-12T17:14:39;6.00;6.00;5.00
35654;PMS1003;21773;50.010;19.972;2023-08-12T17:17:44;10.00;9.00;8.00
35654;PMS1003;21773;50.010;19.972;2023-08-12T17:20:47;7.00;7.00;6.00
35654;PMS1003;21773;50.010;19.972;2023-08-12T17:23:50;8.20;8.00;7.60
35654;PMS1003;21773;50.010;19.972;2023-08-12T17:26:54;9.75;9.75;8.75
35654;PMS1003;21773;50.010;19.972;2023-08-12T17:29:57;9.00;9.00;8.00
35654;PMS1003;21773;50.010;19.972;2023-08-12T17:33:01;6.00;6.00;5.00